createdAt,value
2024-03-08T00:02:16.756Z,96249.16
2024-03-08T00:04:43.695Z,96250.72
2024-03-08T00:07:10.376Z,96247.78
2024-03-08T00:09:37.624Z,96241.63
2024-03-08T00:12:04.518Z,96251.38
2024-03-08T00:14:31.291Z,96245.28
2024-03-08T00:16:58.012Z,96241.25
2024-03-08T00:19:24.732Z,96245.78
2024-03-08T00:21:51.426Z,96239.34
2024-03-08T00:24:18.149Z,96232.25
2024-03-08T00:26:44.901Z,96235.69
2024-03-08T00:29:11.657Z,96233.69
2024-03-08T00:31:38.364Z,96233.41
2024-03-08T00:34:05.130Z,96238.09
2024-03-08T00:36:31.812Z,96235.91
2024-03-08T00:38:58.574Z,96227.25
2024-03-08T00:41:27.708Z,96227.69
2024-03-08T00:43:54.475Z,96224.78
2024-03-08T00:46:21.233Z,96229.25
2024-03-08T00:48:48.614Z,96225.91
2024-03-08T00:51:16.566Z,96225.75
2024-03-08T00:53:44.426Z,96214.44
2024-03-08T00:56:14.313Z,96212.38
2024-03-08T00:58:41.375Z,96207.63
2024-03-08T01:01:08.159Z,96203.91
2024-03-08T01:03:35.562Z,96209.09
2024-03-08T01:06:02.587Z,96208.22
2024-03-08T01:08:29.502Z,96203.75
2024-03-08T01:10:56.275Z,96198.03
2024-03-08T01:13:23.005Z,96202.28
2024-03-08T01:15:49.674Z,96196.34
2024-03-08T01:18:16.442Z,96193.06
2024-03-08T01:20:43.189Z,96192.69
2024-03-08T01:23:10.175Z,96188.75
2024-03-08T01:25:36.862Z,96182.59
2024-03-08T01:28:03.765Z,96178.91
2024-03-08T01:30:30.537Z,96169.41
2024-03-08T01:32:57.255Z,96166.91
2024-03-08T01:35:24.117Z,96170.50
2024-03-08T01:37:50.845Z,96171.75
2024-03-08T01:40:18.031Z,96169.28
2024-03-08T01:42:46.104Z,96164.72
2024-03-08T01:45:13.030Z,96169.13
2024-03-08T01:47:40.091Z,96156.03
2024-03-08T01:50:07.589Z,96160.25
2024-03-08T01:52:35.591Z,96159.44
2024-03-08T01:55:03.795Z,96159.75
2024-03-08T01:57:32.602Z,96151.47
2024-03-08T01:59:59.355Z,96150.66
2024-03-08T02:02:26.545Z,96146.56
2024-03-08T02:04:54.390Z,96145.81
2024-03-08T02:07:21.194Z,96149.75
2024-03-08T02:09:47.911Z,96148.28
2024-03-08T02:12:15.095Z,96141.72
2024-03-08T02:14:42.038Z,96140.19
2024-03-08T02:17:08.967Z,96137.66
2024-03-08T02:19:37.539Z,96144.50
2024-03-08T02:22:05.663Z,96135.03
2024-03-08T02:24:33.678Z,96132.81
2024-03-08T02:27:00.595Z,96130.75
2024-03-08T02:29:27.394Z,96129.97
2024-03-08T02:31:54.136Z,96121.38
2024-03-08T02:34:21.349Z,96126.22
2024-03-08T02:36:48.188Z,96125.06
2024-03-08T02:39:15.143Z,96135.94
2024-03-08T02:41:41.939Z,96126.22
2024-03-08T02:44:08.687Z,96124.63
2024-03-08T02:46:37.041Z,96124.47
2024-03-08T02:49:03.845Z,96128.59
2024-03-08T02:51:32.049Z,96127.44
2024-03-08T02:53:58.838Z,96126.13
2024-03-08T02:56:25.608Z,96122.03
2024-03-08T02:58:52.280Z,96119.44
2024-03-08T03:01:21.615Z,96121.88
2024-03-08T03:03:48.435Z,96117.41
2024-03-08T03:06:15.177Z,96120.75
2024-03-08T03:08:44.024Z,96124.50
2024-03-08T03:11:10.762Z,96119.59
2024-03-08T03:13:37.443Z,96124.34
2024-03-08T03:16:04.721Z,96119.19
2024-03-08T03:18:31.587Z,96108.06
2024-03-08T03:20:58.304Z,96108.94
2024-03-08T03:23:27.168Z,96101.47
2024-03-08T03:25:53.827Z,96098.84
2024-03-08T03:28:22.947Z,96096.66
2024-03-08T03:30:49.707Z,96099.28
2024-03-08T03:33:17.941Z,96106.31
2024-03-08T03:35:45.368Z,96097.09
2024-03-08T03:38:12.381Z,96093.00
2024-03-08T03:40:41.478Z,96093.69
2024-03-08T03:43:09.165Z,96089.59
2024-03-08T03:45:37.460Z,96093.25
2024-03-08T03:48:08.128Z,96092.25
2024-03-08T03:50:36.520Z,96086.31
2024-03-08T03:53:04.746Z,96086.09
2024-03-08T03:55:31.325Z,96087.78
2024-03-08T03:58:00.257Z,96087.41
2024-03-08T04:00:28.452Z,96086.75
2024-03-08T04:02:56.235Z,96090.84
2024-03-08T04:05:23.029Z,96077.19
2024-03-08T04:07:49.731Z,96087.28
2024-03-08T04:10:16.488Z,96084.69
2024-03-08T04:12:43.442Z,96085.31
2024-03-08T04:15:12.500Z,96072.56
2024-03-08T04:17:39.897Z,96082.81
2024-03-08T04:20:11.530Z,96071.53
2024-03-08T04:22:39.093Z,96071.09
2024-03-08T04:25:06.980Z,96071.03
2024-03-08T04:27:34.416Z,96069.16
2024-03-08T04:30:02.163Z,96070.69
2024-03-08T04:32:31.449Z,96069.44
2024-03-08T04:34:58.550Z,96062.00
2024-03-08T04:37:26.331Z,96063.63
2024-03-08T04:39:53.467Z,96063.75
2024-03-08T04:42:20.308Z,96066.53
2024-03-08T04:44:47.148Z,96065.63
2024-03-08T04:47:14.043Z,96071.03
2024-03-08T04:49:40.758Z,96069.06
2024-03-08T04:52:08.302Z,96072.22
2024-03-08T04:54:35.690Z,96063.03
2024-03-08T04:57:05.262Z,96058.84
2024-03-08T04:59:33.910Z,96065.75
2024-03-08T05:02:00.898Z,96059.47
2024-03-08T05:04:27.707Z,96060.22
2024-03-08T05:06:54.911Z,96056.03
2024-03-08T05:09:22.195Z,96057.38
2024-03-08T05:11:49.177Z,96060.25
2024-03-08T05:14:21.395Z,96053.78
2024-03-08T05:16:51.458Z,96051.78
2024-03-08T05:19:19.600Z,96046.69
2024-03-08T05:21:50.394Z,96044.78
2024-03-08T05:24:18.325Z,96047.13
2024-03-08T05:26:46.216Z,96044.25
2024-03-08T05:29:13.940Z,96041.84
2024-03-08T05:31:50.445Z,96035.28
2024-03-08T05:34:23.620Z,96039.09
2024-03-08T05:36:51.752Z,96040.97
2024-03-08T05:39:20.951Z,96048.88
2024-03-08T05:41:48.832Z,96044.38
2024-03-08T05:44:15.932Z,96049.59
2024-03-08T05:46:42.657Z,96043.88
2024-03-08T05:49:11.947Z,96049.88
2024-03-08T05:51:43.169Z,96044.66
2024-03-08T05:54:12.245Z,96055.00
2024-03-08T05:56:43.598Z,96056.63
2024-03-08T05:59:11.030Z,96049.78
2024-03-08T06:01:37.876Z,96047.63
2024-03-08T06:04:05.269Z,96042.03
2024-03-08T06:06:32.201Z,96047.22
2024-03-08T06:09:00.079Z,96044.22
2024-03-08T06:11:31.875Z,96040.47
2024-03-08T06:14:01.476Z,96035.41
2024-03-08T06:16:31.547Z,96039.78
2024-03-08T06:18:58.715Z,96039.88
2024-03-08T06:21:27.402Z,96046.75
2024-03-08T06:23:59.103Z,96041.47
2024-03-08T06:26:29.867Z,96044.88
2024-03-08T06:28:57.893Z,96043.41
2024-03-08T06:31:24.966Z,96040.75
2024-03-08T06:33:52.041Z,96042.22
2024-03-08T06:36:22.863Z,96040.38
2024-03-08T06:38:50.672Z,96039.13
2024-03-08T06:41:17.756Z,96041.53
2024-03-08T06:43:45.332Z,96038.00
2024-03-08T06:46:13.941Z,96044.78
2024-03-08T06:48:41.176Z,96044.88
2024-03-08T06:51:08.505Z,96035.47
2024-03-08T06:53:39.944Z,96032.91
2024-03-08T06:56:08.427Z,96036.63
2024-03-08T06:58:35.156Z,96038.22
2024-03-08T07:01:05.457Z,96039.09
2024-03-08T07:03:33.776Z,96037.56
2024-03-08T07:06:02.939Z,96032.31
2024-03-08T07:08:29.804Z,96028.31
2024-03-08T07:10:56.786Z,96027.56
2024-03-08T07:13:23.543Z,96022.91
2024-03-08T07:15:50.237Z,96027.25
2024-03-08T07:18:17.145Z,96018.09
2024-03-08T07:20:45.127Z,96017.00
2024-03-08T07:23:12.081Z,96021.94
2024-03-08T07:25:40.706Z,96016.00
2024-03-08T07:28:10.841Z,96011.19
2024-03-08T07:30:45.833Z,96018.06
2024-03-08T07:33:13.960Z,96022.63
2024-03-08T07:35:41.863Z,96016.16
2024-03-08T07:38:11.290Z,96017.09
2024-03-08T07:40:45.630Z,96007.63
2024-03-08T07:43:12.869Z,96017.09
2024-03-08T07:45:40.125Z,96005.38
2024-03-08T07:48:14.481Z,96007.06
2024-03-08T07:50:42.361Z,96013.41
2024-03-08T07:53:09.608Z,96007.75
2024-03-08T07:55:37.399Z,96005.28
2024-03-08T07:58:04.731Z,96004.34
2024-03-08T08:00:32.912Z,95996.34
2024-03-08T08:03:00.133Z,95989.00
2024-03-08T08:05:27.645Z,95978.69
2024-03-08T08:07:54.957Z,95988.44
2024-03-08T08:10:26.617Z,95978.09
2024-03-08T08:12:53.955Z,95981.97
2024-03-08T08:15:21.430Z,95972.13
2024-03-08T08:17:48.900Z,95968.16
2024-03-08T08:20:16.441Z,95972.94
2024-03-08T08:22:46.414Z,95973.19
2024-03-08T08:25:16.825Z,95966.22
2024-03-08T08:27:43.880Z,95964.19
2024-03-08T08:30:12.519Z,95950.84
2024-03-08T08:32:50.023Z,95966.16
2024-03-08T08:35:17.432Z,95947.38
2024-03-08T08:37:45.393Z,95958.13
2024-03-08T08:40:16.404Z,95954.41
2024-03-08T08:42:43.975Z,95946.09
2024-03-08T08:45:16.108Z,95946.09
2024-03-08T08:47:46.760Z,95936.31
2024-03-08T08:50:14.186Z,95939.06
2024-03-08T08:52:41.573Z,95930.81
2024-03-08T08:55:08.941Z,95928.63
2024-03-08T08:57:36.499Z,95930.25
2024-03-08T09:00:08.521Z,95931.47
2024-03-08T09:02:35.905Z,95926.31
2024-03-08T09:05:03.340Z,95925.63
2024-03-08T09:07:30.896Z,95928.16
2024-03-08T09:09:59.863Z,95932.22
2024-03-08T09:12:27.357Z,95918.59
2024-03-08T09:14:54.139Z,95924.34
2024-03-08T09:17:23.771Z,95909.13
2024-03-08T09:19:51.582Z,95901.84
2024-03-08T09:22:19.674Z,95908.47
2024-03-08T09:24:47.042Z,95898.09
2024-03-08T09:27:15.014Z,95900.31
2024-03-08T09:29:41.775Z,95894.41
2024-03-08T09:32:08.792Z,95885.91
2024-03-08T09:34:38.061Z,95891.25
2024-03-08T09:37:05.812Z,95884.50
2024-03-08T09:39:34.782Z,95872.06
2024-03-08T09:42:03.103Z,95884.78
2024-03-08T09:44:32.964Z,95874.81
2024-03-08T09:47:00.949Z,95878.28
2024-03-08T09:49:27.885Z,95878.06
2024-03-08T09:51:54.995Z,95868.75
2024-03-08T09:54:25.980Z,95866.56
2024-03-08T09:56:53.434Z,95856.28
2024-03-08T09:59:29.372Z,95848.06
2024-03-08T10:02:00.968Z,95853.88
2024-03-08T10:04:29.877Z,95845.59
2024-03-08T10:06:58.143Z,95846.09
2024-03-08T10:09:26.382Z,95841.09
2024-03-08T10:11:57.232Z,95839.22
2024-03-08T10:14:23.997Z,95838.41
2024-03-08T10:16:50.726Z,95838.88
2024-03-08T10:19:18.209Z,95839.06
2024-03-08T10:21:53.263Z,95835.97
2024-03-08T10:24:20.062Z,95829.22
2024-03-08T10:26:47.160Z,95822.44
2024-03-08T10:29:16.863Z,95824.66
2024-03-08T10:31:46.704Z,95815.47
2024-03-08T10:34:13.784Z,95821.31
2024-03-08T10:36:42.243Z,95812.31
2024-03-08T10:39:25.500Z,95812.88
2024-03-08T10:42:01.528Z,95810.38
2024-03-08T10:44:28.233Z,95803.09
2024-03-08T10:47:20.478Z,95803.41
2024-03-08T10:50:05.576Z,95800.41
2024-03-08T10:52:33.315Z,95799.44
2024-03-08T10:55:00.761Z,95797.53
2024-03-08T10:57:28.710Z,95794.75
2024-03-08T10:59:59.242Z,95788.69
2024-03-08T11:02:28.619Z,95784.53
2024-03-08T11:04:57.996Z,95783.72
2024-03-08T11:07:28.667Z,95781.53
2024-03-08T11:09:57.574Z,95776.06
2024-03-08T11:12:31.059Z,95777.09
2024-03-08T11:15:02.408Z,95768.84
2024-03-08T11:17:29.228Z,95767.56
2024-03-08T11:20:06.578Z,95760.81
2024-03-08T11:22:34.955Z,95747.63
2024-03-08T11:25:11.408Z,95745.47
2024-03-08T11:27:38.727Z,95737.19
2024-03-08T11:30:16.187Z,95753.13
2024-03-08T11:32:49.185Z,95729.03
2024-03-08T11:35:21.735Z,95729.75
2024-03-08T11:37:49.417Z,95732.88
2024-03-08T11:40:17.651Z,95726.63
2024-03-08T11:42:49.184Z,95724.50
2024-03-08T11:45:18.827Z,95707.09
2024-03-08T11:47:50.762Z,95721.16
2024-03-08T11:50:20.482Z,95711.66
2024-03-08T11:52:47.834Z,95714.97
2024-03-08T11:55:15.106Z,95712.84
2024-03-08T11:57:43.448Z,95707.63
2024-03-08T12:00:27.057Z,95692.72
2024-03-08T12:03:11.822Z,95690.44
2024-03-08T12:05:39.344Z,95686.69
2024-03-08T12:08:08.420Z,95687.25
2024-03-08T12:10:36.548Z,95672.56
2024-03-08T12:13:12.655Z,95680.94
2024-03-08T12:15:40.724Z,95676.13
2024-03-08T12:18:08.706Z,95667.38
2024-03-08T12:20:35.600Z,95668.00
2024-03-08T12:23:03.600Z,95669.03
2024-03-08T12:25:37.866Z,95652.97
2024-03-08T12:28:14.638Z,95665.69
2024-03-08T12:30:54.313Z,95657.97
2024-03-08T12:33:21.481Z,95654.25
2024-03-08T12:35:56.023Z,95656.88
2024-03-08T12:38:27.129Z,95654.75
2024-03-08T12:41:00.462Z,95646.50
2024-03-08T12:43:27.498Z,95640.22
2024-03-08T12:45:55.904Z,95645.81
2024-03-08T12:48:22.649Z,95649.28
2024-03-08T12:50:49.466Z,95639.09
2024-03-08T12:53:16.424Z,95638.41
2024-03-08T12:55:43.235Z,95626.22
2024-03-08T12:58:10.804Z,95627.63
2024-03-08T13:00:37.925Z,95622.13
2024-03-08T13:03:05.052Z,95611.47
2024-03-08T13:05:31.609Z,95610.47
2024-03-08T13:07:58.778Z,95607.09
2024-03-08T13:10:25.632Z,95610.44
2024-03-08T13:12:54.809Z,95599.06
2024-03-08T13:15:21.948Z,95595.81
2024-03-08T13:17:50.035Z,95597.28
2024-03-08T13:20:27.668Z,95596.38
2024-03-08T13:23:00.502Z,95594.72
2024-03-08T13:25:27.419Z,95581.13
2024-03-08T13:27:57.238Z,95590.75
2024-03-08T13:30:25.590Z,95583.22
2024-03-08T13:32:56.054Z,95578.69
2024-03-08T13:35:25.834Z,95574.28
2024-03-08T13:37:52.984Z,95569.13
2024-03-08T13:40:21.431Z,95568.13
2024-03-08T13:42:50.366Z,95569.38
2024-03-08T13:45:25.225Z,95563.75
2024-03-08T13:47:55.779Z,95566.78
2024-03-08T13:50:23.293Z,95571.88
2024-03-08T13:52:56.197Z,95563.44
2024-03-08T13:55:26.944Z,95556.19
2024-03-08T13:57:54.318Z,95551.69
2024-03-08T14:00:24.139Z,95546.81
2024-03-08T14:02:50.896Z,95560.22
2024-03-08T14:05:19.058Z,95541.84
2024-03-08T14:07:51.016Z,95537.69
2024-03-08T14:10:21.814Z,95526.31
2024-03-08T14:12:51.668Z,95518.88
2024-03-08T14:15:18.721Z,95538.38
2024-03-08T14:17:47.440Z,95521.63
2024-03-08T14:20:14.336Z,95523.50
2024-03-08T14:22:41.067Z,95525.28
2024-03-08T14:25:10.232Z,95525.47
2024-03-08T14:27:36.946Z,95501.09
2024-03-08T14:30:04.451Z,95520.09
2024-03-08T14:32:31.126Z,95505.06
2024-03-08T14:34:57.861Z,95508.56
2024-03-08T14:37:29.369Z,95507.59
2024-03-08T14:39:57.504Z,95500.03
2024-03-08T14:42:24.341Z,95506.00
2024-03-08T14:44:54.983Z,95499.22
2024-03-08T14:47:23.527Z,95495.44
2024-03-08T14:49:50.505Z,95496.22
2024-03-08T14:52:29.568Z,95494.94
2024-03-08T14:54:57.284Z,95493.84
2024-03-08T14:57:24.059Z,95485.16
2024-03-08T14:59:51.474Z,95481.84
2024-03-08T15:02:20.531Z,95487.84
2024-03-08T15:04:58.544Z,95482.19
2024-03-08T15:07:32.141Z,95478.38
2024-03-08T15:09:58.953Z,95489.13
2024-03-08T15:12:27.327Z,95488.66
2024-03-08T15:14:56.495Z,95485.66
2024-03-08T15:17:24.097Z,95484.03
2024-03-08T15:19:51.234Z,95473.47
2024-03-08T15:22:19.103Z,95480.41
2024-03-08T15:24:46.049Z,95469.97
2024-03-08T15:27:13.178Z,95470.56
2024-03-08T15:29:40.080Z,95477.06
2024-03-08T15:32:07.956Z,95474.88
2024-03-08T15:34:39.332Z,95475.94
2024-03-08T15:37:06.332Z,95467.53
2024-03-08T15:39:34.867Z,95468.97
2024-03-08T15:42:01.937Z,95469.25
2024-03-08T15:44:29.943Z,95469.16
2024-03-08T15:46:56.967Z,95462.84
2024-03-08T15:49:25.685Z,95459.19
2024-03-08T15:51:52.442Z,95461.22
2024-03-08T15:54:19.929Z,95462.78
2024-03-08T15:56:46.741Z,95458.22
2024-03-08T15:59:13.705Z,95449.50
2024-03-08T16:01:40.859Z,95463.56
2024-03-08T16:04:08.068Z,95457.03
2024-03-08T16:06:37.621Z,95454.41
2024-03-08T16:09:08.944Z,95460.19
2024-03-08T16:11:39.240Z,95455.69
2024-03-08T16:14:06.268Z,95438.88
2024-03-08T16:16:33.313Z,95445.81
2024-03-08T16:19:00.091Z,95446.53
2024-03-08T16:21:28.233Z,95452.28
2024-03-08T16:23:55.049Z,95454.22
2024-03-08T16:26:24.267Z,95451.75
2024-03-08T16:28:50.954Z,95447.22
2024-03-08T16:31:17.663Z,95448.53
2024-03-08T16:33:45.788Z,95451.22
2024-03-08T16:36:14.921Z,95442.91
2024-03-08T16:38:44.805Z,95446.84
2024-03-08T16:41:13.440Z,95454.00
2024-03-08T16:43:40.384Z,95449.13
2024-03-08T16:46:07.809Z,95452.69
2024-03-08T16:48:35.556Z,95454.00
2024-03-08T16:51:02.435Z,95446.41
2024-03-08T16:53:29.253Z,95452.31
2024-03-08T16:55:58.669Z,95450.34
2024-03-08T16:58:25.616Z,95442.63
2024-03-08T17:00:52.456Z,95442.28
2024-03-08T17:03:19.560Z,95440.97
2024-03-08T17:05:47.170Z,95439.44
2024-03-08T17:08:16.423Z,95443.28
2024-03-08T17:10:44.619Z,95438.03
2024-03-08T17:13:13.512Z,95443.94
2024-03-08T17:15:40.682Z,95436.22
2024-03-08T17:18:09.845Z,95442.50
2024-03-08T17:20:38.290Z,95440.69
2024-03-08T17:23:10.000Z,95442.00
2024-03-08T17:25:39.097Z,95449.19
2024-03-08T17:28:08.233Z,95446.25
2024-03-08T17:30:39.446Z,95448.16
2024-03-08T17:33:17.092Z,95447.88
2024-03-08T17:35:45.913Z,95452.63
2024-03-08T17:38:13.166Z,95447.06
2024-03-08T17:40:42.614Z,95453.28
2024-03-08T17:43:14.838Z,95449.84
2024-03-08T17:45:46.473Z,95449.16
2024-03-08T17:48:14.523Z,95450.41
2024-03-08T17:50:42.764Z,95454.16
2024-03-08T17:53:11.538Z,95454.72
2024-03-08T17:55:41.959Z,95458.97
2024-03-08T17:58:09.524Z,95455.84
2024-03-08T18:00:36.885Z,95449.94
2024-03-08T18:03:09.965Z,95454.34
2024-03-08T18:05:38.278Z,95450.47
2024-03-08T18:08:05.943Z,95446.91
2024-03-08T18:10:35.425Z,95450.75
2024-03-08T18:13:04.262Z,95453.47
2024-03-08T18:15:34.986Z,95455.13
2024-03-08T18:18:04.437Z,95441.91
2024-03-08T18:20:33.574Z,95452.59
2024-03-08T18:23:02.902Z,95451.78
2024-03-08T18:25:33.802Z,95446.78
2024-03-08T18:28:06.769Z,95447.72
2024-03-08T18:30:34.201Z,95448.13
2024-03-08T18:33:00.962Z,95437.44
2024-03-08T18:35:27.689Z,95431.09
2024-03-08T18:37:57.012Z,95430.66
2024-03-08T18:40:24.837Z,95434.44
2024-03-08T18:42:53.081Z,95438.88
2024-03-08T18:45:22.942Z,95425.00
2024-03-08T18:47:52.121Z,95436.25
2024-03-08T18:50:22.365Z,95436.56
2024-03-08T18:52:49.676Z,95429.66
2024-03-08T18:55:22.558Z,95423.25
2024-03-08T18:57:49.474Z,95425.97
2024-03-08T19:00:24.799Z,95424.41
2024-03-08T19:02:58.101Z,95429.41
2024-03-08T19:05:28.966Z,95426.56
2024-03-08T19:07:57.290Z,95426.47
2024-03-08T19:10:26.399Z,95423.06
2024-03-08T19:12:57.175Z,95435.88
2024-03-08T19:15:24.888Z,95428.59
2024-03-08T19:17:53.803Z,95425.16
2024-03-08T19:20:25.625Z,95417.44
2024-03-08T19:22:55.537Z,95419.66
2024-03-08T19:25:26.166Z,95423.69
2024-03-08T19:27:52.907Z,95423.69
2024-03-08T19:30:22.204Z,95418.13
2024-03-08T19:32:48.937Z,95410.41
2024-03-08T19:35:19.671Z,95409.09
2024-03-08T19:37:47.093Z,95405.63
2024-03-08T19:40:23.879Z,95408.81
2024-03-08T19:42:55.953Z,95403.81
2024-03-08T19:45:27.358Z,95400.06
2024-03-08T19:47:55.425Z,95404.84
2024-03-08T19:50:22.582Z,95410.66
2024-03-08T19:52:51.940Z,95404.81
2024-03-08T19:55:21.405Z,95403.75
2024-03-08T19:57:51.775Z,95408.78
2024-03-08T20:00:27.080Z,95400.59
2024-03-08T20:02:57.446Z,95406.94
2024-03-08T20:05:26.011Z,95403.50
2024-03-08T20:07:56.563Z,95400.31
2024-03-08T20:10:25.205Z,95394.25
2024-03-08T20:12:58.170Z,95395.81
2024-03-08T20:15:26.471Z,95395.28
2024-03-08T20:17:54.997Z,95390.78
2024-03-08T20:20:23.341Z,95393.69
2024-03-08T20:22:53.223Z,95387.81
2024-03-08T20:25:22.670Z,95387.03
2024-03-08T20:27:55.005Z,95396.81
2024-03-08T20:30:28.089Z,95404.50
2024-03-08T20:33:05.148Z,95398.50
2024-03-08T20:35:36.569Z,95402.00
2024-03-08T20:38:08.170Z,95396.47
2024-03-08T20:40:46.464Z,95398.59
2024-03-08T20:43:18.778Z,95401.59
2024-03-08T20:45:45.851Z,95404.00
2024-03-08T20:48:16.006Z,95398.13
2024-03-08T20:50:43.710Z,95398.63
2024-03-08T20:53:12.684Z,95394.88
2024-03-08T20:55:49.923Z,95396.91
2024-03-08T20:58:17.991Z,95402.50
2024-03-08T21:00:55.145Z,95397.00
2024-03-08T21:03:24.853Z,95389.75
2024-03-08T21:05:52.395Z,95392.47
2024-03-08T21:08:24.922Z,95388.59
2024-03-08T21:10:55.227Z,95397.78
2024-03-08T21:13:25.366Z,95392.78
2024-03-08T21:15:56.008Z,95387.63
2024-03-08T21:18:23.915Z,95379.63
2024-03-08T21:20:50.841Z,95382.41
2024-03-08T21:23:17.568Z,95384.38
2024-03-08T21:25:44.834Z,95364.91
2024-03-08T21:28:12.608Z,95376.81
2024-03-08T21:30:40.809Z,95366.78
2024-03-08T21:33:12.120Z,95369.97
2024-03-08T21:35:40.596Z,95367.88
2024-03-08T21:38:08.290Z,95357.50
2024-03-08T21:40:37.278Z,95378.69
2024-03-08T21:43:04.912Z,95368.84
2024-03-08T21:45:32.798Z,95356.59
2024-03-08T21:48:04.684Z,95354.91
2024-03-08T21:50:34.586Z,95353.16
2024-03-08T21:53:02.533Z,95359.84
2024-03-08T21:55:31.380Z,95352.00
2024-03-08T21:58:01.233Z,95358.28
2024-03-08T22:00:33.737Z,95348.78
2024-03-08T22:03:03.869Z,95342.16
2024-03-08T22:05:30.957Z,95337.81
2024-03-08T22:07:58.457Z,95332.63
2024-03-08T22:10:27.972Z,95337.72
2024-03-08T22:12:56.778Z,95332.66
2024-03-08T22:15:25.524Z,95333.41
2024-03-08T22:17:57.752Z,95321.97
2024-03-08T22:20:32.739Z,95329.72
2024-03-08T22:23:01.257Z,95319.09
2024-03-08T22:25:28.827Z,95323.78
2024-03-08T22:27:55.768Z,95318.34
2024-03-08T22:30:24.734Z,95306.75
2024-03-08T22:32:55.780Z,95305.22
2024-03-08T22:35:25.539Z,95303.09
2024-03-08T22:37:53.116Z,95304.91
2024-03-08T22:40:25.594Z,95301.97
2024-03-08T22:42:53.261Z,95301.34
2024-03-08T22:45:20.276Z,95305.22
2024-03-08T22:47:47.802Z,95305.53
2024-03-08T22:50:17.288Z,95296.41
2024-03-08T22:52:46.236Z,95290.81
2024-03-08T22:55:14.155Z,95288.81
2024-03-08T22:57:41.497Z,95291.31
2024-03-08T23:00:38.333Z,95289.16
2024-03-08T23:03:11.794Z,95294.44
2024-03-08T23:05:42.278Z,95295.28
2024-03-08T23:08:09.553Z,95291.31
2024-03-08T23:10:40.254Z,95300.81
2024-03-08T23:13:07.444Z,95295.66
2024-03-08T23:15:34.204Z,95301.66
2024-03-08T23:18:01.018Z,95302.34
2024-03-08T23:20:34.266Z,95297.44
2024-03-08T23:23:05.424Z,95282.84
2024-03-08T23:25:33.725Z,95287.88
2024-03-08T23:28:07.770Z,95273.94
2024-03-08T23:30:40.584Z,95275.81
2024-03-08T23:33:10.206Z,95270.91
2024-03-08T23:35:41.855Z,95274.09
2024-03-08T23:38:09.194Z,95270.09
2024-03-08T23:40:36.098Z,95271.28
2024-03-08T23:43:04.853Z,95280.56
2024-03-08T23:45:31.624Z,95281.06
2024-03-08T23:48:00.707Z,95281.09
2024-03-08T23:50:31.526Z,95270.69
2024-03-08T23:53:01.425Z,95272.41
2024-03-08T23:55:30.994Z,95266.28
2024-03-08T23:57:59.359Z,95266.38
